sensor_id;sensor_type;location;lat;lon;timestamp;temperature;humidity
837;DHT22;400;53.550;9.932;2024-01-30T00:01:40;8.50;1.00
837;DHT22;400;53.550;9.932;2024-01-30T00:04:06;8.50;1.00
837;DHT22;400;53.550;9.932;2024-01-30T00:06:33;8.40;1.00
837;DHT22;400;53.550;9.932;2024-01-30T00:09:00;8.40;1.00
837;DHT22;400;53.550;9.932;2024-01-30T00:11:27;8.40;1.00
837;DHT22;400;53.550;9.932;2024-01-30T00:13:55;8.40;1.00
837;DHT22;400;53.550;9.932;2024-01-30T00:16:23;8.40;1.00
837;DHT22;400;53.550;9.932;2024-01-30T00:18:51;8.40;1.00
837;DHT22;400;53.550;9.932;2024-01-30T00:21:21;8.40;1.00
837;DHT22;400;53.550;9.932;2024-01-30T00:23:52;8.40;1.00
837;DHT22;400;53.550;9.932;2024-01-30T00:26:22;8.30;1.00
837;DHT22;400;53.550;9.932;2024-01-30T00:28:49;8.30;1.00
837;DHT22;400;53.550;9.932;2024-01-30T00:31:17;8.30;1.00
837;DHT22;400;53.550;9.932;2024-01-30T00:33:44;8.30;1.00
837;DHT22;400;53.550;9.932;2024-01-30T00:36:11;8.30;1.00
837;DHT22;400;53.550;9.932;2024-01-30T00:38:38;8.30;1.00
837;DHT22;400;53.550;9.932;2024-01-30T00:41:07;8.30;1.00
837;DHT22;400;53.550;9.932;2024-01-30T00:43:34;8.30;1.00
837;DHT22;400;53.550;9.932;2024-01-30T00:46:01;8.30;1.00
837;DHT22;400;53.550;9.932;2024-01-30T00:48:30;8.30;1.00
837;DHT22;400;53.550;9.932;2024-01-30T00:50:57;8.20;1.00
837;DHT22;400;53.550;9.932;2024-01-30T00:53:23;8.20;1.00
837;DHT22;400;53.550;9.932;2024-01-30T00:55:50;8.20;1.00
837;DHT22;400;53.550;9.932;2024-01-30T00:58:17;8.20;1.00
837;DHT22;400;53.550;9.932;2024-01-30T01:00:45;8.20;1.00
837;DHT22;400;53.550;9.932;2024-01-30T01:03:12;8.10;1.00
837;DHT22;400;53.550;9.932;2024-01-30T01:05:41;8.10;1.00
837;DHT22;400;53.550;9.932;2024-01-30T01:08:08;8.10;1.00
837;DHT22;400;53.550;9.932;2024-01-30T01:10:35;8.10;1.00
837;DHT22;400;53.550;9.932;2024-01-30T01:13:02;8.00;1.00
837;DHT22;400;53.550;9.932;2024-01-30T01:15:29;8.00;1.00
837;DHT22;400;53.550;9.932;2024-01-30T01:17:56;8.00;1.00
837;DHT22;400;53.550;9.932;2024-01-30T01:20:23;8.00;1.00
837;DHT22;400;53.550;9.932;2024-01-30T01:22:51;8.00;1.00
837;DHT22;400;53.550;9.932;2024-01-30T01:25:19;8.00;1.00
837;DHT22;400;53.550;9.932;2024-01-30T01:27:46;8.00;1.00
837;DHT22;400;53.550;9.932;2024-01-30T01:30:17;8.00;1.00
837;DHT22;400;53.550;9.932;2024-01-30T01:32:47;8.00;1.00
837;DHT22;400;53.550;9.932;2024-01-30T01:35:20;7.90;1.00
837;DHT22;400;53.550;9.932;2024-01-30T01:37:48;7.90;1.00
837;DHT22;400;53.550;9.932;2024-01-30T01:40:22;7.90;1.00
837;DHT22;400;53.550;9.932;2024-01-30T01:42:49;7.90;1.00
837;DHT22;400;53.550;9.932;2024-01-30T01:45:16;7.80;1.00
837;DHT22;400;53.550;9.932;2024-01-30T01:47:47;7.80;1.00
837;DHT22;400;53.550;9.932;2024-01-30T01:50:16;7.80;1.00
837;DHT22;400;53.550;9.932;2024-01-30T01:52:44;7.80;1.00
837;DHT22;400;53.550;9.932;2024-01-30T01:55:12;7.80;1.00
837;DHT22;400;53.550;9.932;2024-01-30T01:57:41;7.80;1.00
837;DHT22;400;53.550;9.932;2024-01-30T02:00:09;7.80;1.00
837;DHT22;400;53.550;9.932;2024-01-30T02:02:37;7.80;1.00
837;DHT22;400;53.550;9.932;2024-01-30T02:05:06;7.90;1.00
837;DHT22;400;53.550;9.932;2024-01-30T02:07:34;7.80;1.00
837;DHT22;400;53.550;9.932;2024-01-30T02:10:01;7.80;1.00
837;DHT22;400;53.550;9.932;2024-01-30T02:12:29;7.80;1.00
837;DHT22;400;53.550;9.932;2024-01-30T02:14:57;7.80;1.00
837;DHT22;400;53.550;9.932;2024-01-30T02:17:24;7.80;1.00
837;DHT22;400;53.550;9.932;2024-01-30T02:19:52;7.80;1.00
837;DHT22;400;53.550;9.932;2024-01-30T02:22:20;7.80;1.00
837;DHT22;400;53.550;9.932;2024-01-30T02:24:48;7.80;1.00
837;DHT22;400;53.550;9.932;2024-01-30T02:27:15;7.80;1.00
837;DHT22;400;53.550;9.932;2024-01-30T02:29:42;7.80;1.00
837;DHT22;400;53.550;9.932;2024-01-30T02:32:09;7.80;1.00
837;DHT22;400;53.550;9.932;2024-01-30T02:34:36;7.80;1.00
837;DHT22;400;53.550;9.932;2024-01-30T02:37:03;7.80;1.00
837;DHT22;400;53.550;9.932;2024-01-30T02:39:31;7.80;1.00
837;DHT22;400;53.550;9.932;2024-01-30T02:41:58;7.80;1.00
837;DHT22;400;53.550;9.932;2024-01-30T02:44:25;7.80;1.00
837;DHT22;400;53.550;9.932;2024-01-30T02:46:52;7.80;1.00
837;DHT22;400;53.550;9.932;2024-01-30T02:49:20;7.80;1.00
837;DHT22;400;53.550;9.932;2024-01-30T02:51:47;7.70;1.00
837;DHT22;400;53.550;9.932;2024-01-30T02:54:14;7.70;1.00
837;DHT22;400;53.550;9.932;2024-01-30T02:56:42;7.70;1.00
837;DHT22;400;53.550;9.932;2024-01-30T02:59:09;7.70;1.00
837;DHT22;400;53.550;9.932;2024-01-30T03:01:42;7.70;1.00
837;DHT22;400;53.550;9.932;2024-01-30T03:04:09;7.70;1.00
837;DHT22;400;53.550;9.932;2024-01-30T03:06:36;7.70;1.00
837;DHT22;400;53.550;9.932;2024-01-30T03:09:03;7.60;1.00
837;DHT22;400;53.550;9.932;2024-01-30T03:11:30;7.60;1.00
837;DHT22;400;53.550;9.932;2024-01-30T03:13:59;7.60;1.00
837;DHT22;400;53.550;9.932;2024-01-30T03:16:25;7.60;1.00
837;DHT22;400;53.550;9.932;2024-01-30T03:18:52;7.60;1.00
837;DHT22;400;53.550;9.932;2024-01-30T03:21:19;7.60;1.00
837;DHT22;400;53.550;9.932;2024-01-30T03:23:47;7.60;1.00
837;DHT22;400;53.550;9.932;2024-01-30T03:26:14;7.60;1.00
837;DHT22;400;53.550;9.932;2024-01-30T03:28:41;7.60;1.00
837;DHT22;400;53.550;9.932;2024-01-30T03:31:09;7.50;1.00
837;DHT22;400;53.550;9.932;2024-01-30T03:33:36;7.60;1.00
837;DHT22;400;53.550;9.932;2024-01-30T03:36:05;7.50;1.00
837;DHT22;400;53.550;9.932;2024-01-30T03:38:32;7.60;1.00
837;DHT22;400;53.550;9.932;2024-01-30T03:40:59;7.50;1.00
837;DHT22;400;53.550;9.932;2024-01-30T03:43:26;7.50;1.00
837;DHT22;400;53.550;9.932;2024-01-30T03:45:53;7.50;1.00
837;DHT22;400;53.550;9.932;2024-01-30T03:48:21;7.40;1.00
837;DHT22;400;53.550;9.932;2024-01-30T03:50:48;7.50;1.00
837;DHT22;400;53.550;9.932;2024-01-30T03:53:15;7.40;1.00
837;DHT22;400;53.550;9.932;2024-01-30T03:55:42;7.40;1.00
837;DHT22;400;53.550;9.932;2024-01-30T03:58:09;7.50;1.00
837;DHT22;400;53.550;9.932;2024-01-30T04:00:36;7.40;1.00
837;DHT22;400;53.550;9.932;2024-01-30T04:03:03;7.50;1.00
837;DHT22;400;53.550;9.932;2024-01-30T04:05:32;7.50;1.00
837;DHT22;400;53.550;9.932;2024-01-30T04:07:59;7.50;1.00
837;DHT22;400;53.550;9.932;2024-01-30T04:10:26;7.50;1.00
837;DHT22;400;53.550;9.932;2024-01-30T04:12:53;7.50;1.00
837;DHT22;400;53.550;9.932;2024-01-30T04:15:21;7.40;1.00
837;DHT22;400;53.550;9.932;2024-01-30T04:17:47;7.40;1.00
837;DHT22;400;53.550;9.932;2024-01-30T04:20:15;7.50;1.00
837;DHT22;400;53.550;9.932;2024-01-30T04:22:44;7.50;1.00
837;DHT22;400;53.550;9.932;2024-01-30T04:25:11;7.50;1.00
837;DHT22;400;53.550;9.932;2024-01-30T04:27:38;7.50;1.00
837;DHT22;400;53.550;9.932;2024-01-30T04:30:06;7.40;1.00
837;DHT22;400;53.550;9.932;2024-01-30T04:32:33;7.40;1.00
837;DHT22;400;53.550;9.932;2024-01-30T04:35:00;7.40;1.00
837;DHT22;400;53.550;9.932;2024-01-30T04:37:27;7.40;1.00
837;DHT22;400;53.550;9.932;2024-01-30T04:39:56;7.40;1.00
837;DHT22;400;53.550;9.932;2024-01-30T04:42:23;7.40;1.00
837;DHT22;400;53.550;9.932;2024-01-30T04:44:50;7.30;1.00
837;DHT22;400;53.550;9.932;2024-01-30T04:47:17;7.30;1.00
837;DHT22;400;53.550;9.932;2024-01-30T04:49:44;7.30;1.00
837;DHT22;400;53.550;9.932;2024-01-30T04:52:11;7.30;1.00
837;DHT22;400;53.550;9.932;2024-01-30T04:54:38;7.30;1.00
837;DHT22;400;53.550;9.932;2024-01-30T04:57:06;7.30;1.00
837;DHT22;400;53.550;9.932;2024-01-30T04:59:39;7.30;1.00
837;DHT22;400;53.550;9.932;2024-01-30T05:02:10;7.20;1.00
837;DHT22;400;53.550;9.932;2024-01-30T05:04:37;7.20;1.00
837;DHT22;400;53.550;9.932;2024-01-30T05:07:04;7.20;1.00
837;DHT22;400;53.550;9.932;2024-01-30T05:09:31;7.20;1.00
837;DHT22;400;53.550;9.932;2024-01-30T05:11:58;7.20;1.00
837;DHT22;400;53.550;9.932;2024-01-30T05:14:26;7.20;1.00
837;DHT22;400;53.550;9.932;2024-01-30T05:16:53;7.30;1.00
837;DHT22;400;53.550;9.932;2024-01-30T05:19:19;7.20;1.00
837;DHT22;400;53.550;9.932;2024-01-30T05:21:48;7.20;1.00
837;DHT22;400;53.550;9.932;2024-01-30T05:24:15;7.30;1.00
837;DHT22;400;53.550;9.932;2024-01-30T05:26:42;7.30;1.00
837;DHT22;400;53.550;9.932;2024-01-30T05:29:09;7.30;1.00
837;DHT22;400;53.550;9.932;2024-01-30T05:31:37;7.30;1.00
837;DHT22;400;53.550;9.932;2024-01-30T05:34:04;7.30;1.00
837;DHT22;400;53.550;9.932;2024-01-30T05:36:32;7.30;1.00
837;DHT22;400;53.550;9.932;2024-01-30T05:38:59;7.30;1.00
837;DHT22;400;53.550;9.932;2024-01-30T05:41:26;7.30;1.00
837;DHT22;400;53.550;9.932;2024-01-30T05:43:53;7.30;1.00
837;DHT22;400;53.550;9.932;2024-01-30T05:46:20;7.30;1.00
837;DHT22;400;53.550;9.932;2024-01-30T05:48:48;7.30;1.00
837;DHT22;400;53.550;9.932;2024-01-30T05:51:15;7.30;1.00
837;DHT22;400;53.550;9.932;2024-01-30T05:53:42;7.30;1.00
837;DHT22;400;53.550;9.932;2024-01-30T05:56:09;7.30;1.00
837;DHT22;400;53.550;9.932;2024-01-30T05:58:36;7.30;1.00
837;DHT22;400;53.550;9.932;2024-01-30T06:01:09;7.30;1.00
837;DHT22;400;53.550;9.932;2024-01-30T06:03:42;7.30;1.00
837;DHT22;400;53.550;9.932;2024-01-30T06:06:13;7.30;1.00
837;DHT22;400;53.550;9.932;2024-01-30T06:08:40;7.30;1.00
837;DHT22;400;53.550;9.932;2024-01-30T06:11:10;7.40;1.00
837;DHT22;400;53.550;9.932;2024-01-30T06:13:38;7.30;1.00
837;DHT22;400;53.550;9.932;2024-01-30T06:16:10;7.30;1.00
837;DHT22;400;53.550;9.932;2024-01-30T06:18:38;7.30;1.00
837;DHT22;400;53.550;9.932;2024-01-30T06:21:05;7.40;1.00
837;DHT22;400;53.550;9.932;2024-01-30T06:23:35;7.40;1.00
837;DHT22;400;53.550;9.932;2024-01-30T06:26:08;7.30;1.00
837;DHT22;400;53.550;9.932;2024-01-30T06:28:40;7.30;1.00
837;DHT22;400;53.550;9.932;2024-01-30T06:31:16;7.30;1.00
837;DHT22;400;53.550;9.932;2024-01-30T06:33:48;7.40;1.00
837;DHT22;400;53.550;9.932;2024-01-30T06:36:16;7.40;1.00
837;DHT22;400;53.550;9.932;2024-01-30T06:38:46;7.30;1.00
837;DHT22;400;53.550;9.932;2024-01-30T06:41:14;7.40;1.00
837;DHT22;400;53.550;9.932;2024-01-30T06:43:43;7.40;1.00
837;DHT22;400;53.550;9.932;2024-01-30T06:46:12;7.40;1.00
837;DHT22;400;53.550;9.932;2024-01-30T06:48:44;7.40;1.00
837;DHT22;400;53.550;9.932;2024-01-30T06:51:11;7.40;1.00
837;DHT22;400;53.550;9.932;2024-01-30T06:53:48;7.40;1.00
837;DHT22;400;53.550;9.932;2024-01-30T06:56:16;7.50;1.00
837;DHT22;400;53.550;9.932;2024-01-30T06:58:46;7.50;1.00
837;DHT22;400;53.550;9.932;2024-01-30T07:01:14;7.50;1.00
837;DHT22;400;53.550;9.932;2024-01-30T07:03:41;7.50;1.00
837;DHT22;400;53.550;9.932;2024-01-30T07:06:10;7.50;1.00
837;DHT22;400;53.550;9.932;2024-01-30T07:08:37;7.50;1.00
837;DHT22;400;53.550;9.932;2024-01-30T07:11:08;7.50;1.00
837;DHT22;400;53.550;9.932;2024-01-30T07:13:37;7.50;1.00
837;DHT22;400;53.550;9.932;2024-01-30T07:16:06;7.50;1.00
837;DHT22;400;53.550;9.932;2024-01-30T07:18:36;7.50;1.00
837;DHT22;400;53.550;9.932;2024-01-30T07:21:06;7.50;1.00
837;DHT22;400;53.550;9.932;2024-01-30T07:23:33;7.50;1.00
837;DHT22;400;53.550;9.932;2024-01-30T07:26:01;7.60;1.00
837;DHT22;400;53.550;9.932;2024-01-30T07:28:29;7.60;1.00
837;DHT22;400;53.550;9.932;2024-01-30T07:30:56;7.50;1.00
837;DHT22;400;53.550;9.932;2024-01-30T07:33:23;7.50;1.00
837;DHT22;400;53.550;9.932;2024-01-30T07:35:51;7.60;1.00
837;DHT22;400;53.550;9.932;2024-01-30T07:38:19;7.60;1.00
837;DHT22;400;53.550;9.932;2024-01-30T07:40:48;7.60;1.00
837;DHT22;400;53.550;9.932;2024-01-30T07:43:18;7.60;1.00
837;DHT22;400;53.550;9.932;2024-01-30T07:45:54;7.60;1.00
837;DHT22;400;53.550;9.932;2024-01-30T07:48:21;7.60;1.00
837;DHT22;400;53.550;9.932;2024-01-30T07:50:54;7.70;1.00
837;DHT22;400;53.550;9.932;2024-01-30T07:53:29;7.70;1.00
837;DHT22;400;53.550;9.932;2024-01-30T07:55:56;7.70;1.00
837;DHT22;400;53.550;9.932;2024-01-30T07:58:24;7.70;1.00
837;DHT22;400;53.550;9.932;2024-01-30T08:01:01;7.80;1.00
837;DHT22;400;53.550;9.932;2024-01-30T08:03:30;7.80;1.00
837;DHT22;400;53.550;9.932;2024-01-30T08:05:59;7.80;1.00
837;DHT22;400;53.550;9.932;2024-01-30T08:08:31;7.80;1.00
837;DHT22;400;53.550;9.932;2024-01-30T08:11:03;7.80;1.00
837;DHT22;400;53.550;9.932;2024-01-30T08:13:33;7.80;1.00
837;DHT22;400;53.550;9.932;2024-01-30T08:16:04;7.80;1.00
837;DHT22;400;53.550;9.932;2024-01-30T08:18:35;7.80;1.00
837;DHT22;400;53.550;9.932;2024-01-30T08:21:03;7.80;1.00
837;DHT22;400;53.550;9.932;2024-01-30T08:23:32;7.80;1.00
837;DHT22;400;53.550;9.932;2024-01-30T08:26:02;7.90;1.00
837;DHT22;400;53.550;9.932;2024-01-30T08:28:30;7.80;1.00
837;DHT22;400;53.550;9.932;2024-01-30T08:30:57;7.80;1.00
837;DHT22;400;53.550;9.932;2024-01-30T08:33:26;7.90;1.00
837;DHT22;400;53.550;9.932;2024-01-30T08:35:54;7.90;1.00
837;DHT22;400;53.550;9.932;2024-01-30T08:38:25;7.90;1.00
837;DHT22;400;53.550;9.932;2024-01-30T08:40:55;7.90;1.00
837;DHT22;400;53.550;9.932;2024-01-30T08:43:28;7.90;1.00
837;DHT22;400;53.550;9.932;2024-01-30T08:45:59;7.90;1.00
837;DHT22;400;53.550;9.932;2024-01-30T08:48:35;7.90;1.00
837;DHT22;400;53.550;9.932;2024-01-30T08:51:03;7.90;1.00
837;DHT22;400;53.550;9.932;2024-01-30T08:53:35;8.00;1.00
837;DHT22;400;53.550;9.932;2024-01-30T08:56:04;7.90;1.00
837;DHT22;400;53.550;9.932;2024-01-30T08:58:31;7.90;1.00
837;DHT22;400;53.550;9.932;2024-01-30T09:00:59;8.00;1.00
837;DHT22;400;53.550;9.932;2024-01-30T09:03:25;7.90;1.00
837;DHT22;400;53.550;9.932;2024-01-30T09:05:54;8.00;1.00
837;DHT22;400;53.550;9.932;2024-01-30T09:08:21;8.00;1.00
837;DHT22;400;53.550;9.932;2024-01-30T09:10:49;8.00;1.00
837;DHT22;400;53.550;9.932;2024-01-30T09:13:16;8.00;1.00
837;DHT22;400;53.550;9.932;2024-01-30T09:15:43;8.00;1.00
837;DHT22;400;53.550;9.932;2024-01-30T09:18:10;8.00;1.00
837;DHT22;400;53.550;9.932;2024-01-30T09:20:37;8.00;1.00
837;DHT22;400;53.550;9.932;2024-01-30T09:23:07;8.00;1.00
837;DHT22;400;53.550;9.932;2024-01-30T09:25:36;8.10;1.00
837;DHT22;400;53.550;9.932;2024-01-30T09:28:04;8.10;1.00
837;DHT22;400;53.550;9.932;2024-01-30T09:30:31;8.20;1.00
837;DHT22;400;53.550;9.932;2024-01-30T09:33:04;8.10;1.00
837;DHT22;400;53.550;9.932;2024-01-30T09:35:32;8.20;1.00
837;DHT22;400;53.550;9.932;2024-01-30T09:37:59;8.20;1.00
837;DHT22;400;53.550;9.932;2024-01-30T09:40:27;8.20;1.00
837;DHT22;400;53.550;9.932;2024-01-30T09:42:55;8.30;1.00
837;DHT22;400;53.550;9.932;2024-01-30T09:45:26;8.20;1.00
837;DHT22;400;53.550;9.932;2024-01-30T09:47:53;8.30;1.00
837;DHT22;400;53.550;9.932;2024-01-30T09:50:21;8.30;1.00
837;DHT22;400;53.550;9.932;2024-01-30T09:52:49;8.30;1.00
837;DHT22;400;53.550;9.932;2024-01-30T09:55:21;8.30;1.00
837;DHT22;400;53.550;9.932;2024-01-30T09:57:52;8.40;1.00
837;DHT22;400;53.550;9.932;2024-01-30T10:00:23;8.40;1.00
837;DHT22;400;53.550;9.932;2024-01-30T10:02:54;8.40;1.00
837;DHT22;400;53.550;9.932;2024-01-30T10:05:26;8.40;1.00
837;DHT22;400;53.550;9.932;2024-01-30T10:07:58;8.40;1.00
837;DHT22;400;53.550;9.932;2024-01-30T10:10:32;8.50;1.00
837;DHT22;400;53.550;9.932;2024-01-30T10:13:06;8.50;1.00
837;DHT22;400;53.550;9.932;2024-01-30T10:15:37;8.50;1.00
837;DHT22;400;53.550;9.932;2024-01-30T10:18:06;8.60;1.00
837;DHT22;400;53.550;9.932;2024-01-30T10:20:34;8.60;1.00
837;DHT22;400;53.550;9.932;2024-01-30T10:23:01;8.70;1.00
837;DHT22;400;53.550;9.932;2024-01-30T10:25:28;8.70;1.00
837;DHT22;400;53.550;9.932;2024-01-30T10:27:57;8.70;1.00
837;DHT22;400;53.550;9.932;2024-01-30T10:30:29;8.70;1.00
837;DHT22;400;53.550;9.932;2024-01-30T10:32:58;8.80;1.00
837;DHT22;400;53.550;9.932;2024-01-30T10:35:29;8.80;1.00
837;DHT22;400;53.550;9.932;2024-01-30T10:37:59;8.80;1.00
837;DHT22;400;53.550;9.932;2024-01-30T10:40:28;8.90;1.00
837;DHT22;400;53.550;9.932;2024-01-30T10:42:56;8.90;1.00
837;DHT22;400;53.550;9.932;2024-01-30T10:45:26;8.90;1.00
837;DHT22;400;53.550;9.932;2024-01-30T10:47:59;9.00;1.00
837;DHT22;400;53.550;9.932;2024-01-30T10:50:29;9.00;1.00
837;DHT22;400;53.550;9.932;2024-01-30T10:52:58;9.00;1.00
837;DHT22;400;53.550;9.932;2024-01-30T10:55:27;9.10;1.00
837;DHT22;400;53.550;9.932;2024-01-30T10:57:57;9.10;1.00
837;DHT22;400;53.550;9.932;2024-01-30T11:00:24;9.10;1.00
837;DHT22;400;53.550;9.932;2024-01-30T11:02:52;9.10;1.00
837;DHT22;400;53.550;9.932;2024-01-30T11:05:30;9.20;1.00
837;DHT22;400;53.550;9.932;2024-01-30T11:07:57;9.20;1.00
837;DHT22;400;53.550;9.932;2024-01-30T11:10:25;9.30;1.00
837;DHT22;400;53.550;9.932;2024-01-30T11:12:57;9.30;1.00
837;DHT22;400;53.550;9.932;2024-01-30T11:15:25;9.30;1.00
837;DHT22;400;53.550;9.932;2024-01-30T11:17:54;9.30;1.00
837;DHT22;400;53.550;9.932;2024-01-30T11:20:26;9.40;1.00
837;DHT22;400;53.550;9.932;2024-01-30T11:23:00;9.40;1.00
837;DHT22;400;53.550;9.932;2024-01-30T11:25:32;9.50;1.00
837;DHT22;400;53.550;9.932;2024-01-30T11:27:59;9.50;1.00
837;DHT22;400;53.550;9.932;2024-01-30T11:30:37;9.50;1.00
837;DHT22;400;53.550;9.932;2024-01-30T11:33:06;9.60;1.00
837;DHT22;400;53.550;9.932;2024-01-30T11:35:40;9.60;1.00
837;DHT22;400;53.550;9.932;2024-01-30T11:38:16;9.60;1.00
837;DHT22;400;53.550;9.932;2024-01-30T11:40:47;9.70;1.00
837;DHT22;400;53.550;9.932;2024-01-30T11:46:25;9.70;1.00
837;DHT22;400;53.550;9.932;2024-01-30T11:48:52;9.70;1.00
837;DHT22;400;53.550;9.932;2024-01-30T11:51:23;9.70;1.00
837;DHT22;400;53.550;9.932;2024-01-30T11:53:51;9.80;1.00
837;DHT22;400;53.550;9.932;2024-01-30T11:56:21;9.70;1.00
837;DHT22;400;53.550;9.932;2024-01-30T11:58:51;9.70;1.00
837;DHT22;400;53.550;9.932;2024-01-30T12:01:23;9.80;1.00
837;DHT22;400;53.550;9.932;2024-01-30T12:03:57;9.90;1.00
837;DHT22;400;53.550;9.932;2024-01-30T12:06:31;9.90;1.00
837;DHT22;400;53.550;9.932;2024-01-30T12:09:05;9.90;1.00
837;DHT22;400;53.550;9.932;2024-01-30T12:11:44;9.90;1.00
837;DHT22;400;53.550;9.932;2024-01-30T12:14:17;10.00;1.00
837;DHT22;400;53.550;9.932;2024-01-30T12:16:48;9.90;1.00
837;DHT22;400;53.550;9.932;2024-01-30T12:19:33;10.00;1.00
837;DHT22;400;53.550;9.932;2024-01-30T12:22:02;10.00;1.00
837;DHT22;400;53.550;9.932;2024-01-30T12:24:37;10.10;1.00
837;DHT22;400;53.550;9.932;2024-01-30T12:27:09;10.10;1.00
837;DHT22;400;53.550;9.932;2024-01-30T12:29:36;10.10;1.00
837;DHT22;400;53.550;9.932;2024-01-30T12:32:03;10.10;1.00
837;DHT22;400;53.550;9.932;2024-01-30T12:34:40;10.10;1.00
837;DHT22;400;53.550;9.932;2024-01-30T12:37:10;10.20;1.00
837;DHT22;400;53.550;9.932;2024-01-30T12:39:46;10.20;1.00
837;DHT22;400;53.550;9.932;2024-01-30T12:42:15;10.30;1.00
837;DHT22;400;53.550;9.932;2024-01-30T12:44:43;10.30;1.00
837;DHT22;400;53.550;9.932;2024-01-30T12:47:10;10.30;1.00
837;DHT22;400;53.550;9.932;2024-01-30T12:49:37;10.30;1.00
837;DHT22;400;53.550;9.932;2024-01-30T12:52:05;10.30;1.00
837;DHT22;400;53.550;9.932;2024-01-30T12:54:32;10.30;1.00
837;DHT22;400;53.550;9.932;2024-01-30T12:57:00;10.40;1.00
837;DHT22;400;53.550;9.932;2024-01-30T12:59:27;10.30;1.00
837;DHT22;400;53.550;9.932;2024-01-30T13:01:54;10.40;1.00
837;DHT22;400;53.550;9.932;2024-01-30T13:04:21;10.40;1.00
837;DHT22;400;53.550;9.932;2024-01-30T13:06:49;10.40;1.00
837;DHT22;400;53.550;9.932;2024-01-30T13:09:25;10.40;1.00
837;DHT22;400;53.550;9.932;2024-01-30T13:11:57;10.40;1.00
837;DHT22;400;53.550;9.932;2024-01-30T13:14:29;10.40;1.00
837;DHT22;400;53.550;9.932;2024-01-30T13:16:55;10.50;1.00
837;DHT22;400;53.550;9.932;2024-01-30T13:19:23;10.50;1.00
837;DHT22;400;53.550;9.932;2024-01-30T13:21:53;10.40;1.00
837;DHT22;400;53.550;9.932;2024-01-30T13:24:22;10.50;1.00
837;DHT22;400;53.550;9.932;2024-01-30T13:26:55;10.50;1.00
837;DHT22;400;53.550;9.932;2024-01-30T13:29:25;10.50;1.00
837;DHT22;400;53.550;9.932;2024-01-30T13:31:56;10.50;1.00
837;DHT22;400;53.550;9.932;2024-01-30T13:34:24;10.50;1.00
837;DHT22;400;53.550;9.932;2024-01-30T13:36:57;10.50;1.00
837;DHT22;400;53.550;9.932;2024-01-30T13:39:27;10.50;1.00
837;DHT22;400;53.550;9.932;2024-01-30T13:41:56;10.50;1.00
837;DHT22;400;53.550;9.932;2024-01-30T13:44:24;10.50;1.00
837;DHT22;400;53.550;9.932;2024-01-30T13:46:55;10.60;1.00
837;DHT22;400;53.550;9.932;2024-01-30T13:49:27;10.60;1.00
837;DHT22;400;53.550;9.932;2024-01-30T13:51:54;10.60;1.00
837;DHT22;400;53.550;9.932;2024-01-30T13:54:21;10.60;1.00
837;DHT22;400;53.550;9.932;2024-01-30T13:56:51;10.60;1.00
837;DHT22;400;53.550;9.932;2024-01-30T13:59:18;10.60;1.00
837;DHT22;400;53.550;9.932;2024-01-30T14:05:11;10.70;1.00
837;DHT22;400;53.550;9.932;2024-01-30T14:07:38;10.70;1.00
837;DHT22;400;53.550;9.932;2024-01-30T14:10:09;10.70;1.00
837;DHT22;400;53.550;9.932;2024-01-30T14:12:42;10.70;1.00
837;DHT22;400;53.550;9.932;2024-01-30T14:15:14;10.70;1.00
837;DHT22;400;53.550;9.932;2024-01-30T14:17:46;10.70;1.00
837;DHT22;400;53.550;9.932;2024-01-30T14:20:22;10.70;1.00
837;DHT22;400;53.550;9.932;2024-01-30T14:22:52;10.70;1.00
837;DHT22;400;53.550;9.932;2024-01-30T14:25:21;10.80;1.00
837;DHT22;400;53.550;9.932;2024-01-30T14:27:48;10.80;1.00
837;DHT22;400;53.550;9.932;2024-01-30T14:30:16;10.80;1.00
837;DHT22;400;53.550;9.932;2024-01-30T14:32:46;10.80;1.00
837;DHT22;400;53.550;9.932;2024-01-30T14:35:20;10.80;1.00
837;DHT22;400;53.550;9.932;2024-01-30T14:37:51;10.80;1.00
837;DHT22;400;53.550;9.932;2024-01-30T14:40:19;10.80;1.00
837;DHT22;400;53.550;9.932;2024-01-30T14:42:49;10.80;1.00
837;DHT22;400;53.550;9.932;2024-01-30T14:45:17;10.80;1.00
837;DHT22;400;53.550;9.932;2024-01-30T14:47:45;10.80;1.00
837;DHT22;400;53.550;9.932;2024-01-30T14:50:12;10.80;1.00
837;DHT22;400;53.550;9.932;2024-01-30T14:52:40;10.90;1.00
837;DHT22;400;53.550;9.932;2024-01-30T14:55:07;10.90;1.00
837;DHT22;400;53.550;9.932;2024-01-30T14:57:34;10.90;1.00
837;DHT22;400;53.550;9.932;2024-01-30T15:00:05;10.90;1.00
837;DHT22;400;53.550;9.932;2024-01-30T15:02:33;10.90;1.00
837;DHT22;400;53.550;9.932;2024-01-30T15:05:02;10.90;1.00
837;DHT22;400;53.550;9.932;2024-01-30T15:07:29;10.90;1.00
837;DHT22;400;53.550;9.932;2024-01-30T15:10:00;10.90;1.00
837;DHT22;400;53.550;9.932;2024-01-30T15:12:29;10.90;1.00
837;DHT22;400;53.550;9.932;2024-01-30T15:14:56;10.90;1.00
837;DHT22;400;53.550;9.932;2024-01-30T15:17:22;10.90;1.00
837;DHT22;400;53.550;9.932;2024-01-30T15:19:49;10.90;1.00
837;DHT22;400;53.550;9.932;2024-01-30T15:22:17;11.00;1.00
837;DHT22;400;53.550;9.932;2024-01-30T15:24:45;10.90;1.00
837;DHT22;400;53.550;9.932;2024-01-30T15:27:13;11.00;1.00
837;DHT22;400;53.550;9.932;2024-01-30T15:29:40;11.00;1.00
837;DHT22;400;53.550;9.932;2024-01-30T15:32:07;10.90;1.00
837;DHT22;400;53.550;9.932;2024-01-30T15:34:35;11.00;1.00
837;DHT22;400;53.550;9.932;2024-01-30T15:37:07;11.00;1.00
837;DHT22;400;53.550;9.932;2024-01-30T15:39:42;11.00;1.00
837;DHT22;400;53.550;9.932;2024-01-30T15:42:14;11.00;1.00
837;DHT22;400;53.550;9.932;2024-01-30T15:44:41;11.00;1.00
837;DHT22;400;53.550;9.932;2024-01-30T15:47:07;11.00;1.00
837;DHT22;400;53.550;9.932;2024-01-30T15:49:34;11.10;1.00
837;DHT22;400;53.550;9.932;2024-01-30T15:52:02;11.10;1.00
837;DHT22;400;53.550;9.932;2024-01-30T15:54:33;11.10;1.00
837;DHT22;400;53.550;9.932;2024-01-30T15:57:05;11.10;1.00
837;DHT22;400;53.550;9.932;2024-01-30T15:59:36;11.10;1.00
837;DHT22;400;53.550;9.932;2024-01-30T16:02:03;11.00;1.00
837;DHT22;400;53.550;9.932;2024-01-30T16:04:33;11.00;1.00
837;DHT22;400;53.550;9.932;2024-01-30T16:06:59;11.00;1.00
837;DHT22;400;53.550;9.932;2024-01-30T16:09:27;11.00;1.00
837;DHT22;400;53.550;9.932;2024-01-30T16:11:53;11.00;1.00
837;DHT22;400;53.550;9.932;2024-01-30T16:14:22;11.00;1.00
837;DHT22;400;53.550;9.932;2024-01-30T16:16:50;11.00;1.00
837;DHT22;400;53.550;9.932;2024-01-30T16:19:29;11.00;1.00
837;DHT22;400;53.550;9.932;2024-01-30T16:22:03;11.00;1.00
837;DHT22;400;53.550;9.932;2024-01-30T16:24:31;11.00;1.00
837;DHT22;400;53.550;9.932;2024-01-30T16:26:58;10.90;1.00
837;DHT22;400;53.550;9.932;2024-01-30T16:29:28;10.90;1.00
837;DHT22;400;53.550;9.932;2024-01-30T16:31:59;11.00;1.00
837;DHT22;400;53.550;9.932;2024-01-30T16:34:26;11.00;1.00
837;DHT22;400;53.550;9.932;2024-01-30T16:36:54;11.00;1.00
837;DHT22;400;53.550;9.932;2024-01-30T16:39:24;11.00;1.00
837;DHT22;400;53.550;9.932;2024-01-30T16:41:55;11.00;1.00
837;DHT22;400;53.550;9.932;2024-01-30T16:44:32;11.00;1.00
837;DHT22;400;53.550;9.932;2024-01-30T16:47:08;11.00;1.00
837;DHT22;400;53.550;9.932;2024-01-30T16:49:40;11.00;1.00
837;DHT22;400;53.550;9.932;2024-01-30T16:52:18;11.10;1.00
837;DHT22;400;53.550;9.932;2024-01-30T16:54:50;11.00;1.00
837;DHT22;400;53.550;9.932;2024-01-30T16:57:24;11.10;1.00
837;DHT22;400;53.550;9.932;2024-01-30T16:59:51;11.10;1.00
837;DHT22;400;53.550;9.932;2024-01-30T17:02:21;11.10;1.00
837;DHT22;400;53.550;9.932;2024-01-30T17:04:50;11.10;1.00
837;DHT22;400;53.550;9.932;2024-01-30T17:07:18;11.10;1.00
837;DHT22;400;53.550;9.932;2024-01-30T17:09:45;11.10;1.00
837;DHT22;400;53.550;9.932;2024-01-30T17:12:13;11.10;1.00
837;DHT22;400;53.550;9.932;2024-01-30T17:14:44;11.10;1.00
837;DHT22;400;53.550;9.932;2024-01-30T17:17:17;11.20;1.00
837;DHT22;400;53.550;9.932;2024-01-30T17:20:09;11.10;1.00
837;DHT22;400;53.550;9.932;2024-01-30T17:22:41;11.20;1.00